sensor_id;sensor_type;location;lat;lon;timestamp;P1;durP1;ratioP1;P2;durP2;ratioP2
29878;SDS011;16752;53.364;-1.488;2023-06-04T00:00:42;7.35;;;5.13;;
29878;SDS011;16752;53.364;-1.488;2023-06-04T00:03:26;11.85;;;5.20;;
29878;SDS011;16752;53.364;-1.488;2023-06-04T00:06:10;10.90;;;5.78;;
29878;SDS011;16752;53.364;-1.488;2023-06-04T00:08:55;13.93;;;6.20;;
29878;SDS011;16752;53.364;-1.488;2023-06-04T00:11:39;11.73;;;5.35;;
29878;SDS011;16752;53.364;-1.488;2023-06-04T00:14:23;15.10;;;5.82;;
29878;SDS011;16752;53.364;-1.488;2023-06-04T00:17:08;12.75;;;5.70;;
29878;SDS011;16752;53.364;-1.488;2023-06-04T00:19:53;14.20;;;6.28;;
29878;SDS011;16752;53.364;-1.488;2023-06-04T00:22:37;13.10;;;6.03;;
29878;SDS011;16752;53.364;-1.488;2023-06-04T00:25:21;11.15;;;5.50;;
29878;SDS011;16752;53.364;-1.488;2023-06-04T00:28:06;14.13;;;5.78;;
29878;SDS011;16752;53.364;-1.488;2023-06-04T00:30:50;8.68;;;4.60;;
29878;SDS011;16752;53.364;-1.488;2023-06-04T00:33:34;9.38;;;5.30;;
29878;SDS011;16752;53.364;-1.488;2023-06-04T00:36:19;12.98;;;5.40;;
29878;SDS011;16752;53.364;-1.488;2023-06-04T00:39:03;9.60;;;5.45;;
29878;SDS011;16752;53.364;-1.488;2023-06-04T00:41:48;11.50;;;5.28;;
29878;SDS011;16752;53.364;-1.488;2023-06-04T00:44:31;10.65;;;5.10;;
29878;SDS011;16752;53.364;-1.488;2023-06-04T00:47:17;12.07;;;5.72;;
29878;SDS011;16752;53.364;-1.488;2023-06-04T00:50:03;9.88;;;4.75;;
29878;SDS011;16752;53.364;-1.488;2023-06-04T00:52:49;12.05;;;4.60;;
29878;SDS011;16752;53.364;-1.488;2023-06-04T00:55:33;10.75;;;5.32;;
29878;SDS011;16752;53.364;-1.488;2023-06-04T00:58:17;10.88;;;5.00;;
29878;SDS011;16752;53.364;-1.488;2023-06-04T01:01:01;11.43;;;5.22;;
29878;SDS011;16752;53.364;-1.488;2023-06-04T01:03:49;10.10;;;5.45;;
29878;SDS011;16752;53.364;-1.488;2023-06-04T01:09:24;9.68;;;4.68;;
29878;SDS011;16752;53.364;-1.488;2023-06-04T01:12:10;8.40;;;4.35;;
29878;SDS011;16752;53.364;-1.488;2023-06-04T01:14:55;9.18;;;4.85;;
29878;SDS011;16752;53.364;-1.488;2023-06-04T01:17:46;9.32;;;4.75;;
29878;SDS011;16752;53.364;-1.488;2023-06-04T01:20:40;9.88;;;4.88;;
29878;SDS011;16752;53.364;-1.488;2023-06-04T01:23:32;12.05;;;5.57;;
29878;SDS011;16752;53.364;-1.488;2023-06-04T01:26:27;11.18;;;4.70;;
29878;SDS011;16752;53.364;-1.488;2023-06-04T01:29:13;9.00;;;5.22;;
29878;SDS011;16752;53.364;-1.488;2023-06-04T01:31:57;13.55;;;4.82;;
29878;SDS011;16752;53.364;-1.488;2023-06-04T01:34:43;11.70;;;4.85;;
29878;SDS011;16752;53.364;-1.488;2023-06-04T01:37:28;11.07;;;4.68;;
29878;SDS011;16752;53.364;-1.488;2023-06-04T01:40:12;6.82;;;4.50;;
29878;SDS011;16752;53.364;-1.488;2023-06-04T01:42:57;9.20;;;4.65;;
29878;SDS011;16752;53.364;-1.488;2023-06-04T01:45:42;14.25;;;5.07;;
29878;SDS011;16752;53.364;-1.488;2023-06-04T01:48:26;9.55;;;4.68;;
29878;SDS011;16752;53.364;-1.488;2023-06-04T01:51:10;7.22;;;3.92;;
29878;SDS011;16752;53.364;-1.488;2023-06-04T01:53:54;14.32;;;4.90;;
29878;SDS011;16752;53.364;-1.488;2023-06-04T01:56:38;7.47;;;4.20;;
29878;SDS011;16752;53.364;-1.488;2023-06-04T01:59:22;9.93;;;4.88;;
29878;SDS011;16752;53.364;-1.488;2023-06-04T02:02:06;7.93;;;4.38;;
29878;SDS011;16752;53.364;-1.488;2023-06-04T02:04:50;11.57;;;4.60;;
29878;SDS011;16752;53.364;-1.488;2023-06-04T02:07:39;12.00;;;4.20;;
29878;SDS011;16752;53.364;-1.488;2023-06-04T02:10:26;12.27;;;4.82;;
29878;SDS011;16752;53.364;-1.488;2023-06-04T02:13:10;11.55;;;4.18;;
29878;SDS011;16752;53.364;-1.488;2023-06-04T02:15:54;7.65;;;4.13;;
29878;SDS011;16752;53.364;-1.488;2023-06-04T02:18:38;6.85;;;3.45;;
29878;SDS011;16752;53.364;-1.488;2023-06-04T02:21:22;7.60;;;4.00;;
29878;SDS011;16752;53.364;-1.488;2023-06-04T02:24:06;13.00;;;4.28;;
29878;SDS011;16752;53.364;-1.488;2023-06-04T02:26:50;12.35;;;4.30;;
29878;SDS011;16752;53.364;-1.488;2023-06-04T02:29:34;10.43;;;5.10;;
29878;SDS011;16752;53.364;-1.488;2023-06-04T02:32:19;12.05;;;4.38;;
29878;SDS011;16752;53.364;-1.488;2023-06-04T02:35:03;8.27;;;3.97;;
29878;SDS011;16752;53.364;-1.488;2023-06-04T02:37:48;7.75;;;3.75;;
29878;SDS011;16752;53.364;-1.488;2023-06-04T02:40:33;9.02;;;3.50;;
29878;SDS011;16752;53.364;-1.488;2023-06-04T02:43:17;10.15;;;3.70;;
29878;SDS011;16752;53.364;-1.488;2023-06-04T02:46:01;11.48;;;4.15;;
29878;SDS011;16752;53.364;-1.488;2023-06-04T02:48:45;8.52;;;3.83;;
29878;SDS011;16752;53.364;-1.488;2023-06-04T02:51:29;7.20;;;4.32;;
29878;SDS011;16752;53.364;-1.488;2023-06-04T02:54:13;8.70;;;4.05;;
29878;SDS011;16752;53.364;-1.488;2023-06-04T02:56:58;15.25;;;4.10;;
29878;SDS011;16752;53.364;-1.488;2023-06-04T02:59:43;8.88;;;3.65;;
29878;SDS011;16752;53.364;-1.488;2023-06-04T03:02:27;8.20;;;4.47;;
29878;SDS011;16752;53.364;-1.488;2023-06-04T03:05:12;9.00;;;4.30;;
29878;SDS011;16752;53.364;-1.488;2023-06-04T03:08:00;11.57;;;4.70;;
29878;SDS011;16752;53.364;-1.488;2023-06-04T03:10:46;7.57;;;4.55;;
29878;SDS011;16752;53.364;-1.488;2023-06-04T03:13:30;8.75;;;4.25;;
29878;SDS011;16752;53.364;-1.488;2023-06-04T03:16:14;11.95;;;4.65;;
29878;SDS011;16752;53.364;-1.488;2023-06-04T03:18:58;11.90;;;4.95;;
29878;SDS011;16752;53.364;-1.488;2023-06-04T03:21:42;10.13;;;5.18;;
29878;SDS011;16752;53.364;-1.488;2023-06-04T03:24:28;9.80;;;4.80;;
29878;SDS011;16752;53.364;-1.488;2023-06-04T03:27:12;11.45;;;4.88;;
29878;SDS011;16752;53.364;-1.488;2023-06-04T03:29:56;11.57;;;4.80;;
29878;SDS011;16752;53.364;-1.488;2023-06-04T03:32:40;14.13;;;5.00;;
29878;SDS011;16752;53.364;-1.488;2023-06-04T03:35:24;12.48;;;5.10;;
29878;SDS011;16752;53.364;-1.488;2023-06-04T03:38:08;8.90;;;5.10;;
29878;SDS011;16752;53.364;-1.488;2023-06-04T03:40:52;13.98;;;5.32;;
29878;SDS011;16752;53.364;-1.488;2023-06-04T03:43:36;14.45;;;4.85;;
29878;SDS011;16752;53.364;-1.488;2023-06-04T03:46:20;8.95;;;5.07;;
29878;SDS011;16752;53.364;-1.488;2023-06-04T03:49:04;12.57;;;4.75;;
29878;SDS011;16752;53.364;-1.488;2023-06-04T03:51:49;14.18;;;5.18;;
29878;SDS011;16752;53.364;-1.488;2023-06-04T03:54:33;12.45;;;4.85;;
29878;SDS011;16752;53.364;-1.488;2023-06-04T03:57:17;10.65;;;4.35;;
29878;SDS011;16752;53.364;-1.488;2023-06-04T04:00:01;9.20;;;4.95;;
29878;SDS011;16752;53.364;-1.488;2023-06-04T04:02:47;13.32;;;5.30;;
29878;SDS011;16752;53.364;-1.488;2023-06-04T04:05:32;10.65;;;4.82;;
29878;SDS011;16752;53.364;-1.488;2023-06-04T04:08:16;8.85;;;4.57;;
29878;SDS011;16752;53.364;-1.488;2023-06-04T04:11:00;9.95;;;4.93;;
29878;SDS011;16752;53.364;-1.488;2023-06-04T04:13:45;14.10;;;5.32;;
29878;SDS011;16752;53.364;-1.488;2023-06-04T04:16:30;9.63;;;5.13;;
29878;SDS011;16752;53.364;-1.488;2023-06-04T04:19:14;12.38;;;4.18;;
29878;SDS011;16752;53.364;-1.488;2023-06-04T04:21:57;14.32;;;5.28;;
29878;SDS011;16752;53.364;-1.488;2023-06-04T04:24:41;6.65;;;4.30;;
29878;SDS011;16752;53.364;-1.488;2023-06-04T04:27:27;12.85;;;5.15;;
29878;SDS011;16752;53.364;-1.488;2023-06-04T04:30:14;12.38;;;4.72;;
29878;SDS011;16752;53.364;-1.488;2023-06-04T04:32:59;9.88;;;5.65;;
29878;SDS011;16752;53.364;-1.488;2023-06-04T04:35:44;15.30;;;5.30;;
29878;SDS011;16752;53.364;-1.488;2023-06-04T04:38:28;10.20;;;4.57;;
29878;SDS011;16752;53.364;-1.488;2023-06-04T04:41:15;10.63;;;4.95;;
29878;SDS011;16752;53.364;-1.488;2023-06-04T04:44:02;10.25;;;4.78;;
29878;SDS011;16752;53.364;-1.488;2023-06-04T04:46:48;8.82;;;4.97;;
29878;SDS011;16752;53.364;-1.488;2023-06-04T04:49:32;14.20;;;4.88;;
29878;SDS011;16752;53.364;-1.488;2023-06-04T04:52:16;10.65;;;4.40;;
29878;SDS011;16752;53.364;-1.488;2023-06-04T04:55:01;9.63;;;4.47;;
29878;SDS011;16752;53.364;-1.488;2023-06-04T04:57:45;9.02;;;4.78;;
29878;SDS011;16752;53.364;-1.488;2023-06-04T05:00:29;9.93;;;4.30;;
29878;SDS011;16752;53.364;-1.488;2023-06-04T05:03:14;7.95;;;4.30;;
29878;SDS011;16752;53.364;-1.488;2023-06-04T05:05:58;8.25;;;4.32;;
29878;SDS011;16752;53.364;-1.488;2023-06-04T05:08:42;10.70;;;3.88;;
29878;SDS011;16752;53.364;-1.488;2023-06-04T05:11:26;9.82;;;4.70;;
29878;SDS011;16752;53.364;-1.488;2023-06-04T05:14:10;14.18;;;4.80;;
29878;SDS011;16752;53.364;-1.488;2023-06-04T05:16:55;5.50;;;3.75;;
29878;SDS011;16752;53.364;-1.488;2023-06-04T05:19:42;8.35;;;3.75;;
29878;SDS011;16752;53.364;-1.488;2023-06-04T05:22:26;9.57;;;3.10;;
29878;SDS011;16752;53.364;-1.488;2023-06-04T05:25:13;9.38;;;3.75;;
29878;SDS011;16752;53.364;-1.488;2023-06-04T05:27:58;8.02;;;3.67;;
29878;SDS011;16752;53.364;-1.488;2023-06-04T05:30:42;12.13;;;3.15;;
29878;SDS011;16752;53.364;-1.488;2023-06-04T05:33:27;9.85;;;3.45;;
29878;SDS011;16752;53.364;-1.488;2023-06-04T05:36:14;6.47;;;2.95;;
29878;SDS011;16752;53.364;-1.488;2023-06-04T05:38:58;6.82;;;3.47;;
29878;SDS011;16752;53.364;-1.488;2023-06-04T05:41:43;7.57;;;3.58;;
29878;SDS011;16752;53.364;-1.488;2023-06-04T05:44:28;8.57;;;3.78;;
29878;SDS011;16752;53.364;-1.488;2023-06-04T05:47:15;4.72;;;3.03;;
29878;SDS011;16752;53.364;-1.488;2023-06-04T05:50:03;7.40;;;3.20;;
29878;SDS011;16752;53.364;-1.488;2023-06-04T05:52:49;4.22;;;2.75;;
29878;SDS011;16752;53.364;-1.488;2023-06-04T05:55:33;7.82;;;4.78;;
29878;SDS011;16752;53.364;-1.488;2023-06-04T05:58:17;8.80;;;3.45;;
29878;SDS011;16752;53.364;-1.488;2023-06-04T06:01:02;12.90;;;4.18;;
29878;SDS011;16752;53.364;-1.488;2023-06-04T06:03:46;8.02;;;3.97;;
29878;SDS011;16752;53.364;-1.488;2023-06-04T06:06:31;8.40;;;4.35;;
29878;SDS011;16752;53.364;-1.488;2023-06-04T06:09:15;10.73;;;4.13;;
29878;SDS011;16752;53.364;-1.488;2023-06-04T06:12:00;8.85;;;3.97;;
29878;SDS011;16752;53.364;-1.488;2023-06-04T06:14:44;6.47;;;3.40;;
29878;SDS011;16752;53.364;-1.488;2023-06-04T06:17:29;7.53;;;3.55;;
29878;SDS011;16752;53.364;-1.488;2023-06-04T06:20:13;8.60;;;3.83;;
29878;SDS011;16752;53.364;-1.488;2023-06-04T06:23:07;7.55;;;3.38;;
29878;SDS011;16752;53.364;-1.488;2023-06-04T06:25:51;5.43;;;3.38;;
29878;SDS011;16752;53.364;-1.488;2023-06-04T06:28:35;5.57;;;3.47;;
29878;SDS011;16752;53.364;-1.488;2023-06-04T06:31:20;7.20;;;3.05;;
29878;SDS011;16752;53.364;-1.488;2023-06-04T06:34:04;10.43;;;3.20;;
29878;SDS011;16752;53.364;-1.488;2023-06-04T06:36:49;4.60;;;2.55;;
29878;SDS011;16752;53.364;-1.488;2023-06-04T06:39:33;8.13;;;2.88;;
29878;SDS011;16752;53.364;-1.488;2023-06-04T06:42:17;5.03;;;2.72;;
29878;SDS011;16752;53.364;-1.488;2023-06-04T06:45:02;5.88;;;3.33;;
29878;SDS011;16752;53.364;-1.488;2023-06-04T06:47:58;7.95;;;2.92;;
29878;SDS011;16752;53.364;-1.488;2023-06-04T06:50:42;5.10;;;2.75;;
29878;SDS011;16752;53.364;-1.488;2023-06-04T06:53:26;5.82;;;2.80;;
29878;SDS011;16752;53.364;-1.488;2023-06-04T06:56:10;4.85;;;2.80;;
29878;SDS011;16752;53.364;-1.488;2023-06-04T06:58:54;9.35;;;3.45;;
29878;SDS011;16752;53.364;-1.488;2023-06-04T07:01:47;8.50;;;3.63;;
29878;SDS011;16752;53.364;-1.488;2023-06-04T07:04:31;7.13;;;3.35;;
29878;SDS011;16752;53.364;-1.488;2023-06-04T07:07:15;8.48;;;2.95;;
29878;SDS011;16752;53.364;-1.488;2023-06-04T07:10:00;5.85;;;3.53;;
29878;SDS011;16752;53.364;-1.488;2023-06-04T07:12:46;8.77;;;3.45;;
29878;SDS011;16752;53.364;-1.488;2023-06-04T07:15:30;7.18;;;3.30;;
29878;SDS011;16752;53.364;-1.488;2023-06-04T07:18:15;10.80;;;3.88;;
29878;SDS011;16752;53.364;-1.488;2023-06-04T07:21:02;9.50;;;3.53;;
29878;SDS011;16752;53.364;-1.488;2023-06-04T07:24:03;6.18;;;3.13;;
29878;SDS011;16752;53.364;-1.488;2023-06-04T07:26:54;5.85;;;2.80;;
29878;SDS011;16752;53.364;-1.488;2023-06-04T07:29:37;8.23;;;3.13;;
29878;SDS011;16752;53.364;-1.488;2023-06-04T07:32:22;7.22;;;3.03;;
29878;SDS011;16752;53.364;-1.488;2023-06-04T07:35:15;7.03;;;3.55;;
29878;SDS011;16752;53.364;-1.488;2023-06-04T07:38:00;6.00;;;3.58;;
29878;SDS011;16752;53.364;-1.488;2023-06-04T07:40:45;6.82;;;3.33;;
29878;SDS011;16752;53.364;-1.488;2023-06-04T07:43:29;6.53;;;3.55;;
29878;SDS011;16752;53.364;-1.488;2023-06-04T07:46:13;8.35;;;3.95;;
29878;SDS011;16752;53.364;-1.488;2023-06-04T07:53:06;6.82;;;4.15;;
29878;SDS011;16752;53.364;-1.488;2023-06-04T07:56:06;10.32;;;4.10;;
29878;SDS011;16752;53.364;-1.488;2023-06-04T08:05:34;5.22;;;4.10;;
29878;SDS011;16752;53.364;-1.488;2023-06-04T08:08:22;4.15;;;3.42;;
29878;SDS011;16752;53.364;-1.488;2023-06-04T08:22:26;6.72;;;3.25;;
29878;SDS011;16752;53.364;-1.488;2023-06-04T08:29:14;7.68;;;3.78;;
29878;SDS011;16752;53.364;-1.488;2023-06-04T08:32:05;10.00;;;4.10;;
29878;SDS011;16752;53.364;-1.488;2023-06-04T08:34:58;5.70;;;3.38;;
29878;SDS011;16752;53.364;-1.488;2023-06-04T08:37:42;4.38;;;2.78;;
29878;SDS011;16752;53.364;-1.488;2023-06-04T08:40:33;6.55;;;3.25;;
29878;SDS011;16752;53.364;-1.488;2023-06-04T08:46:47;6.97;;;3.08;;
29878;SDS011;16752;53.364;-1.488;2023-06-04T08:53:02;5.53;;;2.65;;
29878;SDS011;16752;53.364;-1.488;2023-06-04T08:55:50;5.97;;;3.13;;
29878;SDS011;16752;53.364;-1.488;2023-06-04T09:01:55;5.68;;;3.15;;
29878;SDS011;16752;53.364;-1.488;2023-06-04T09:04:39;5.65;;;3.17;;
29878;SDS011;16752;53.364;-1.488;2023-06-04T09:07:24;6.20;;;2.85;;
29878;SDS011;16752;53.364;-1.488;2023-06-04T09:10:08;6.68;;;3.28;;
29878;SDS011;16752;53.364;-1.488;2023-06-04T09:13:02;3.95;;;2.92;;
29878;SDS011;16752;53.364;-1.488;2023-06-04T09:18:57;7.03;;;2.63;;
29878;SDS011;16752;53.364;-1.488;2023-06-04T09:22:33;8.02;;;3.47;;
29878;SDS011;16752;53.364;-1.488;2023-06-04T09:25:19;6.63;;;3.35;;
29878;SDS011;16752;53.364;-1.488;2023-06-04T09:28:11;8.88;;;3.50;;
29878;SDS011;16752;53.364;-1.488;2023-06-04T09:31:17;6.55;;;3.88;;
29878;SDS011;16752;53.364;-1.488;2023-06-04T09:34:02;6.43;;;3.55;;
29878;SDS011;16752;53.364;-1.488;2023-06-04T09:36:50;8.85;;;2.90;;
29878;SDS011;16752;53.364;-1.488;2023-06-04T09:39:39;6.28;;;3.30;;
29878;SDS011;16752;53.364;-1.488;2023-06-04T09:43:27;5.88;;;3.50;;
29878;SDS011;16752;53.364;-1.488;2023-06-04T09:46:11;6.82;;;3.08;;
29878;SDS011;16752;53.364;-1.488;2023-06-04T09:48:59;6.28;;;3.40;;
29878;SDS011;16752;53.364;-1.488;2023-06-04T09:51:48;6.35;;;3.17;;
29878;SDS011;16752;53.364;-1.488;2023-06-04T09:54:40;10.38;;;3.10;;
29878;SDS011;16752;53.364;-1.488;2023-06-04T09:57:31;5.30;;;2.97;;
29878;SDS011;16752;53.364;-1.488;2023-06-04T10:00:22;5.60;;;3.10;;
29878;SDS011;16752;53.364;-1.488;2023-06-04T10:03:07;4.15;;;3.10;;
29878;SDS011;16752;53.364;-1.488;2023-06-04T10:09:48;5.05;;;3.10;;
29878;SDS011;16752;53.364;-1.488;2023-06-04T10:13:07;6.95;;;3.83;;
29878;SDS011;16752;53.364;-1.488;2023-06-04T10:19:43;5.78;;;3.13;;
29878;SDS011;16752;53.364;-1.488;2023-06-04T10:22:44;9.77;;;3.08;;
29878;SDS011;16752;53.364;-1.488;2023-06-04T10:25:46;5.90;;;3.20;;
29878;SDS011;16752;53.364;-1.488;2023-06-04T10:28:35;8.82;;;2.97;;
29878;SDS011;16752;53.364;-1.488;2023-06-04T10:31:19;5.22;;;2.67;;
29878;SDS011;16752;53.364;-1.488;2023-06-04T10:37:29;7.05;;;2.97;;
29878;SDS011;16752;53.364;-1.488;2023-06-04T10:40:16;4.00;;;2.95;;
29878;SDS011;16752;53.364;-1.488;2023-06-04T10:43:16;9.02;;;3.65;;
29878;SDS011;16752;53.364;-1.488;2023-06-04T10:46:10;5.18;;;3.33;;
29878;SDS011;16752;53.364;-1.488;2023-06-04T10:49:28;6.50;;;3.78;;
29878;SDS011;16752;53.364;-1.488;2023-06-04T10:52:18;7.90;;;3.60;;
29878;SDS011;16752;53.364;-1.488;2023-06-04T10:55:06;5.60;;;4.15;;
29878;SDS011;16752;53.364;-1.488;2023-06-04T10:58:17;6.00;;;3.78;;
29878;SDS011;16752;53.364;-1.488;2023-06-04T11:02:04;4.07;;;3.40;;
29878;SDS011;16752;53.364;-1.488;2023-06-04T11:05:35;6.38;;;3.55;;
29878;SDS011;16752;53.364;-1.488;2023-06-04T11:09:20;3.80;;;2.90;;
29878;SDS011;16752;53.364;-1.488;2023-06-04T11:12:57;4.57;;;3.10;;
29878;SDS011;16752;53.364;-1.488;2023-06-04T11:19:07;7.80;;;3.47;;
29878;SDS011;16752;53.364;-1.488;2023-06-04T11:21:51;4.10;;;2.72;;
29878;SDS011;16752;53.364;-1.488;2023-06-04T11:24:35;5.35;;;3.67;;
29878;SDS011;16752;53.364;-1.488;2023-06-04T11:27:20;7.63;;;3.85;;
29878;SDS011;16752;53.364;-1.488;2023-06-04T11:30:07;7.05;;;3.60;;
29878;SDS011;16752;53.364;-1.488;2023-06-04T11:33:02;8.10;;;3.42;;
29878;SDS011;16752;53.364;-1.488;2023-06-04T11:35:47;13.13;;;4.28;;
29878;SDS011;16752;53.364;-1.488;2023-06-04T11:38:35;8.27;;;4.55;;
29878;SDS011;16752;53.364;-1.488;2023-06-04T11:41:22;7.68;;;3.08;;
29878;SDS011;16752;53.364;-1.488;2023-06-04T11:44:06;5.90;;;3.47;;
29878;SDS011;16752;53.364;-1.488;2023-06-04T13:37:05;10.60;;;3.03;;
29878;SDS011;16752;53.364;-1.488;2023-06-04T13:39:50;5.80;;;3.55;;
29878;SDS011;16752;53.364;-1.488;2023-06-04T13:42:34;7.00;;;2.95;;
29878;SDS011;16752;53.364;-1.488;2023-06-04T13:45:18;10.50;;;3.15;;
29878;SDS011;16752;53.364;-1.488;2023-06-04T13:48:03;6.85;;;3.35;;
29878;SDS011;16752;53.364;-1.488;2023-06-04T13:50:50;3.70;;;2.85;;
29878;SDS011;16752;53.364;-1.488;2023-06-04T13:53:34;9.30;;;3.80;;
29878;SDS011;16752;53.364;-1.488;2023-06-04T13:56:19;8.63;;;3.28;;
29878;SDS011;16752;53.364;-1.488;2023-06-04T13:59:03;5.70;;;3.13;;
29878;SDS011;16752;53.364;-1.488;2023-06-04T14:01:50;7.68;;;3.42;;
29878;SDS011;16752;53.364;-1.488;2023-06-04T14:04:34;9.75;;;3.40;;
29878;SDS011;16752;53.364;-1.488;2023-06-04T14:07:22;7.30;;;2.78;;
29878;SDS011;16752;53.364;-1.488;2023-06-04T14:13:53;7.85;;;2.53;;
29878;SDS011;16752;53.364;-1.488;2023-06-04T14:16:37;5.85;;;2.97;;
29878;SDS011;16752;53.364;-1.488;2023-06-04T14:19:21;8.05;;;2.97;;
29878;SDS011;16752;53.364;-1.488;2023-06-04T14:22:14;7.47;;;3.70;;
29878;SDS011;16752;53.364;-1.488;2023-06-04T14:25:01;8.65;;;3.97;;
29878;SDS011;16752;53.364;-1.488;2023-06-04T14:27:49;4.97;;;3.10;;
29878;SDS011;16752;53.364;-1.488;2023-06-04T14:30:33;6.28;;;2.78;;
29878;SDS011;16752;53.364;-1.488;2023-06-04T14:33:17;4.60;;;3.35;;
29878;SDS011;16752;53.364;-1.488;2023-06-04T14:36:01;7.50;;;3.28;;
29878;SDS011;16752;53.364;-1.488;2023-06-04T14:38:45;5.30;;;2.83;;
29878;SDS011;16752;53.364;-1.488;2023-06-04T14:44:40;4.85;;;2.45;;
29878;SDS011;16752;53.364;-1.488;2023-06-04T14:47:27;6.18;;;3.10;;
29878;SDS011;16752;53.364;-1.488;2023-06-04T14:50:23;4.20;;;2.38;;
29878;SDS011;16752;53.364;-1.488;2023-06-04T14:53:08;4.70;;;2.50;;
29878;SDS011;16752;53.364;-1.488;2023-06-04T14:55:52;4.97;;;2.58;;
29878;SDS011;16752;53.364;-1.488;2023-06-04T14:58:36;6.05;;;2.65;;
29878;SDS011;16752;53.364;-1.488;2023-06-04T15:01:20;5.50;;;3.03;;
29878;SDS011;16752;53.364;-1.488;2023-06-04T15:04:11;3.67;;;2.58;;
29878;SDS011;16752;53.364;-1.488;2023-06-04T15:06:56;5.32;;;2.83;;
29878;SDS011;16752;53.364;-1.488;2023-06-04T15:09:40;5.25;;;2.80;;
29878;SDS011;16752;53.364;-1.488;2023-06-04T15:12:24;4.78;;;2.33;;
29878;SDS011;16752;53.364;-1.488;2023-06-04T15:15:08;7.10;;;2.30;;
29878;SDS011;16752;53.364;-1.488;2023-06-04T15:17:53;4.53;;;2.78;;
29878;SDS011;16752;53.364;-1.488;2023-06-04T15:20:37;5.32;;;2.63;;
29878;SDS011;16752;53.364;-1.488;2023-06-04T15:23:21;3.63;;;2.10;;
29878;SDS011;16752;53.364;-1.488;2023-06-04T15:26:05;8.73;;;2.60;;
29878;SDS011;16752;53.364;-1.488;2023-06-04T15:29:01;7.05;;;2.70;;
29878;SDS011;16752;53.364;-1.488;2023-06-04T15:31:56;5.07;;;2.40;;
29878;SDS011;16752;53.364;-1.488;2023-06-04T15:34:41;4.68;;;2.25;;
29878;SDS011;16752;53.364;-1.488;2023-06-04T15:37:25;4.93;;;2.72;;
29878;SDS011;16752;53.364;-1.488;2023-06-04T15:40:09;5.90;;;1.98;;
29878;SDS011;16752;53.364;-1.488;2023-06-04T15:43:02;4.03;;;2.00;;
29878;SDS011;16752;53.364;-1.488;2023-06-04T15:45:49;5.07;;;2.03;;
29878;SDS011;16752;53.364;-1.488;2023-06-04T15:48:33;5.05;;;2.25;;
29878;SDS011;16752;53.364;-1.488;2023-06-04T15:51:17;4.60;;;2.35;;
29878;SDS011;16752;53.364;-1.488;2023-06-04T15:54:02;4.07;;;1.98;;
29878;SDS011;16752;53.364;-1.488;2023-06-04T15:56:47;3.92;;;2.15;;
29878;SDS011;16752;53.364;-1.488;2023-06-04T15:59:37;4.75;;;2.05;;
29878;SDS011;16752;53.364;-1.488;2023-06-04T16:02:24;3.53;;;2.20;;
29878;SDS011;16752;53.364;-1.488;2023-06-04T16:05:08;3.15;;;2.05;;
29878;SDS011;16752;53.364;-1.488;2023-06-04T16:07:52;5.50;;;2.22;;
29878;SDS011;16752;53.364;-1.488;2023-06-04T16:10:36;5.30;;;1.85;;
29878;SDS011;16752;53.364;-1.488;2023-06-04T16:13:21;3.55;;;2.00;;
29878;SDS011;16752;53.364;-1.488;2023-06-04T16:16:05;3.72;;;1.88;;
29878;SDS011;16752;53.364;-1.488;2023-06-04T16:18:49;3.88;;;1.95;;
29878;SDS011;16752;53.364;-1.488;2023-06-04T16:21:33;4.78;;;2.17;;
29878;SDS011;16752;53.364;-1.488;2023-06-04T16:30:32;4.63;;;2.08;;
29878;SDS011;16752;53.364;-1.488;2023-06-04T16:33:16;3.58;;;1.88;;
29878;SDS011;16752;53.364;-1.488;2023-06-04T16:36:00;3.67;;;2.03;;
29878;SDS011;16752;53.364;-1.488;2023-06-04T16:38:44;8.95;;;2.53;;
29878;SDS011;16752;53.364;-1.488;2023-06-04T16:41:30;8.07;;;2.95;;
29878;SDS011;16752;53.364;-1.488;2023-06-04T16:44:14;4.95;;;2.40;;
29878;SDS011;16752;53.364;-1.488;2023-06-04T16:46:58;4.45;;;2.67;;
29878;SDS011;16752;53.364;-1.488;2023-06-04T16:49:43;6.25;;;2.58;;
29878;SDS011;16752;53.364;-1.488;2023-06-04T16:52:27;4.70;;;2.80;;
29878;SDS011;16752;53.364;-1.488;2023-06-04T16:55:13;4.70;;;2.63;;
29878;SDS011;16752;53.364;-1.488;2023-06-04T16:58:00;4.60;;;2.40;;
29878;SDS011;16752;53.364;-1.488;2023-06-04T17:00:44;4.45;;;2.70;;
29878;SDS011;16752;53.364;-1.488;2023-06-04T17:03:28;4.85;;;2.42;;
29878;SDS011;16752;53.364;-1.488;2023-06-04T17:06:15;4.20;;;1.92;;
29878;SDS011;16752;53.364;-1.488;2023-06-04T17:08:58;4.10;;;2.70;;
29878;SDS011;16752;53.364;-1.488;2023-06-04T17:11:42;7.90;;;3.45;;
29878;SDS011;16752;53.364;-1.488;2023-06-04T17:14:27;8.98;;;2.90;;
29878;SDS011;16752;53.364;-1.488;2023-06-04T17:17:11;6.25;;;2.88;;
29878;SDS011;16752;53.364;-1.488;2023-06-04T17:19:56;8.25;;;2.60;;
29878;SDS011;16752;53.364;-1.488;2023-06-04T17:22:40;8.05;;;2.80;;
29878;SDS011;16752;53.364;-1.488;2023-06-04T17:25:24;6.28;;;2.72;;
29878;SDS011;16752;53.364;-1.488;2023-06-04T17:28:08;6.05;;;2.85;;
29878;SDS011;16752;53.364;-1.488;2023-06-04T17:30:52;6.13;;;3.05;;
29878;SDS011;16752;53.364;-1.488;2023-06-04T17:33:39;8.18;;;3.30;;
29878;SDS011;16752;53.364;-1.488;2023-06-04T17:36:23;3.88;;;2.47;;
29878;SDS011;16752;53.364;-1.488;2023-06-04T17:39:07;5.05;;;2.72;;
29878;SDS011;16752;53.364;-1.488;2023-06-04T17:41:51;5.50;;;3.20;;
29878;SDS011;16752;53.364;-1.488;2023-06-04T17:45:00;3.80;;;2.40;;
29878;SDS011;16752;53.364;-1.488;2023-06-04T17:48:15;7.28;;;3.20;;
29878;SDS011;16752;53.364;-1.488;2023-06-04T17:51:00;5.18;;;2.80;;
29878;SDS011;16752;53.364;-1.488;2023-06-04T17:53:45;8.05;;;3.03;;
29878;SDS011;16752;53.364;-1.488;2023-06-04T17:56:29;5.25;;;3.08;;
29878;SDS011;16752;53.364;-1.488;2023-06-04T17:59:13;6.63;;;3.42;;
29878;SDS011;16752;53.364;-1.488;2023-06-04T18:01:57;5.28;;;2.67;;
29878;SDS011;16752;53.364;-1.488;2023-06-04T18:04:41;7.97;;;3.00;;
29878;SDS011;16752;53.364;-1.488;2023-06-04T18:07:25;6.13;;;3.35;;
29878;SDS011;16752;53.364;-1.488;2023-06-04T18:10:09;7.15;;;3.65;;
29878;SDS011;16752;53.364;-1.488;2023-06-04T18:13:10;5.05;;;2.85;;
29878;SDS011;16752;53.364;-1.488;2023-06-04T18:18:52;5.43;;;3.40;;
29878;SDS011;16752;53.364;-1.488;2023-06-04T18:21:37;3.53;;;3.10;;
29878;SDS011;16752;53.364;-1.488;2023-06-04T18:24:30;4.85;;;3.53;;
29878;SDS011;16752;53.364;-1.488;2023-06-04T18:27:14;8.65;;;4.00;;
29878;SDS011;16752;53.364;-1.488;2023-06-04T18:29:58;5.93;;;3.55;;
29878;SDS011;16752;53.364;-1.488;2023-06-04T18:32:42;4.47;;;3.35;;
29878;SDS011;16752;53.364;-1.488;2023-06-04T18:35:26;8.35;;;4.10;;
29878;SDS011;16752;53.364;-1.488;2023-06-04T18:38:11;8.30;;;3.78;;
29878;SDS011;16752;53.364;-1.488;2023-06-04T18:40:55;6.68;;;3.92;;
29878;SDS011;16752;53.364;-1.488;2023-06-04T18:43:39;6.18;;;3.60;;
29878;SDS011;16752;53.364;-1.488;2023-06-04T18:46:32;7.03;;;3.40;;
29878;SDS011;16752;53.364;-1.488;2023-06-04T18:49:16;9.00;;;3.70;;
29878;SDS011;16752;53.364;-1.488;2023-06-04T18:52:01;6.32;;;3.40;;
29878;SDS011;16752;53.364;-1.488;2023-06-04T18:54:45;6.63;;;3.60;;
29878;SDS011;16752;53.364;-1.488;2023-06-04T18:57:29;7.50;;;3.70;;
29878;SDS011;16752;53.364;-1.488;2023-06-04T19:00:16;6.70;;;3.13;;
29878;SDS011;16752;53.364;-1.488;2023-06-04T19:03:01;3.75;;;2.60;;
29878;SDS011;16752;53.364;-1.488;2023-06-04T19:05:47;6.40;;;3.25;;
29878;SDS011;16752;53.364;-1.488;2023-06-04T19:08:36;8.85;;;3.53;;
29878;SDS011;16752;53.364;-1.488;2023-06-04T19:11:29;5.03;;;3.33;;
29878;SDS011;16752;53.364;-1.488;2023-06-04T19:14:22;9.27;;;3.67;;
29878;SDS011;16752;53.364;-1.488;2023-06-04T19:17:18;6.68;;;3.15;;
29878;SDS011;16752;53.364;-1.488;2023-06-04T19:20:06;8.23;;;3.63;;
29878;SDS011;16752;53.364;-1.488;2023-06-04T19:23:00;6.18;;;3.75;;
29878;SDS011;16752;53.364;-1.488;2023-06-04T19:25:44;6.47;;;3.85;;
29878;SDS011;16752;53.364;-1.488;2023-06-04T19:28:31;7.07;;;3.47;;
29878;SDS011;16752;53.364;-1.488;2023-06-04T19:31:30;4.80;;;3.05;;